Aérodrome :
LOGIN :

S'inscrire | Disclaimer

   EN    FR    IT 

 










Légende :    VFR   VFR Marginal   IFR   IFR Intensif   IFR Très Intensif
Visi : 
Plafond : 
>= 8 km
>= 3000ft
5 à 8 km
1000 à 3000 ft
1500m à 5 km
500 à 1000 ft
800 à 1500m
200 à 500 ft
< 800m
< 200 ft
Symboles :   Orages  Brouillard  Fortes neiges  Fortes précipitations  Vent > 20 kt
SIGMETs :   Divers  Orages  Givrage  Turbulence  Onde Orograph.  Cendres Volcan.






- Altitude de l'aérodrome : 313 ft
- Code IATA : LEH


LFOH - Le Havre Octeville

DERNIER METAR :
  • 271100Z AUTO 08008KT 5000 BR NSC 08/07 Q1017 NOSIG

METARs EXPIRÉS :
  • 271030Z AUTO 08006KT 4700 BR ///TCU 08/07 Q1017 BECMG 8000 NSW NSC
  • 271000Z AUTO 09006KT 4500 BR OVC049/// ///TCU 08/07 Q1017 BECMG 8000 NSW NSC
  • 270930Z AUTO 10008KT 4500 BR NSC 07/07 Q1017 BECMG 8000 NSW
  • 270900Z AUTO 09008KT 4500 BR NSC 07/07 Q1017 BECMG 8000 NSW
  • 270830Z AUTO 09008KT 5000 BR NSC 07/07 Q1017 NOSIG
  • 270800Z AUTO 08007KT 4600 BR NSC 07/07 Q1017 BECMG 8000 NSW

TAF AMD TAF LFOH
Valide du 27 à 09h jusqu'au 28 à 06h UTC


270936Z 2709/2806 06007KT 4000 BR NSC
PROB40
TEMPO 2709/2711 BKN003
BECMG 2709/2711 8000 NSW
BECMG 2711/2714 12010KT
TEMPO 2802/2806 1500 BR OVC002
ATIS : +33 2 35 54 64 93



MET'MAP, la Météo Aéronautique d'un coup d'oeil ! - Copyright ORBIFLY Décembre 2007 - Disclaimer

ORBIFLY MET'MAP TEAM :

Programmation & Développement : Alexandra Zaïnal
Sur une idée originale de : Baudouin d'Aumeries
Assistance à la programmation : Marc-Olivier Méhu
Soutien technique & logistique : Manuel Goepfert

Contact : metmap@orbifly.com




SOURCES & CREDITS :

   NOAA